Time;durP1;ratioP1;P1;durP2;ratioP2;P2;SDS_P1;SDS_P2;PMS_P1;PMS_P2;Temp;Humidity;BMP_temperature;BMP_pressure;BME280_temperature;BME280_humidity;BME280_pressure;Samples;Min_cycle;Max_cycle;Signal;HPM_P1;HPM_P2
2022/12/05 00:00:25;;;;;;;4.68;2.85;;;4.30;99.90;;;;;;5062765;28;20044;-76
2022/12/05 00:02:50;;;;;;;1.30;1.20;;;4.30;99.90;;;;;;5062564;28;20044;-76
2022/12/05 00:05:16;;;;;;;0.93;0.77;;;4.30;99.90;;;;;;5062531;28;20167;-76
2022/12/05 00:07:42;;;;;;;0.52;0.50;;;4.30;99.90;;;;;;5062450;28;20051;-76
2022/12/05 00:10:08;;;;;;;1.65;1.27;;;4.30;99.90;;;;;;5062741;28;20588;-76
2022/12/05 00:12:33;;;;;;;0.65;0.63;;;4.30;99.90;;;;;;5062544;28;20049;-76
2022/12/05 00:14:59;;;;;;;1.38;1.27;;;4.30;99.90;;;;;;5062516;28;20041;-76
2022/12/05 00:17:25;;;;;;;0.52;0.52;;;4.30;99.90;;;;;;5062249;28;20045;-76
2022/12/05 00:19:50;;;;;;;1.60;1.50;;;4.30;99.90;;;;;;5062376;28;20040;-76
2022/12/05 00:22:16;;;;;;;4.85;1.38;;;4.30;99.90;;;;;;5045883;28;20498;-76
2022/12/05 00:24:42;;;;;;;1.88;1.73;;;4.30;99.90;;;;;;5048011;28;20037;-75
2022/12/05 00:27:07;;;;;;;1.10;0.85;;;4.40;99.90;;;;;;5062118;28;20088;-76
2022/12/05 00:29:33;;;;;;;2.42;1.02;;;4.40;99.90;;;;;;5065790;28;20048;-76
2022/12/05 00:31:58;;;;;;;1.13;0.98;;;4.40;99.90;;;;;;5066272;28;20048;-75
2022/12/05 00:34:25;;;;;;;2.03;1.67;;;4.40;99.90;;;;;;5066234;28;20098;-76
2022/12/05 00:36:50;;;;;;;0.75;0.65;;;4.40;99.90;;;;;;5066393;28;20049;-76
2022/12/05 00:39:16;;;;;;;6.80;2.72;;;4.50;99.90;;;;;;5065966;28;20502;-76
2022/12/05 00:41:42;;;;;;;8.63;1.20;;;4.50;99.90;;;;;;5066326;28;20048;-76
2022/12/05 00:44:10;;;;;;;1.65;1.55;;;4.50;99.90;;;;;;5066176;28;20103;-76
2022/12/05 00:46:36;;;;;;;0.82;0.75;;;4.60;99.90;;;;;;5066383;28;20056;-78
2022/12/05 00:49:03;;;;;;;1.38;1.27;;;4.60;99.90;;;;;;5065751;28;20045;-76
2022/12/05 00:51:32;;;;;;;1.27;1.02;;;4.70;99.90;;;;;;5047940;28;20498;-76
2022/12/05 00:53:59;;;;;;;1.40;1.30;;;4.70;99.90;;;;;;5065603;28;20494;-76
2022/12/05 00:56:27;;;;;;;5.22;4.15;;;4.70;99.90;;;;;;5066129;28;20048;-76
2022/12/05 00:58:54;;;;;;;2.55;1.95;;;4.70;99.90;;;;;;5065783;28;20516;-76
2022/12/05 01:01:27;;;;;;;16.05;2.50;;;4.70;99.90;;;;;;5065872;28;20520;-76
2022/12/05 01:03:56;;;;;;;3.88;1.80;;;4.70;99.90;;;;;;5066068;28;20422;-76
2022/12/05 01:06:23;;;;;;;2.83;1.48;;;4.80;99.90;;;;;;5065667;28;20044;-75
2022/12/05 01:08:48;;;;;;;2.20;2.00;;;4.70;99.90;;;;;;5065348;28;20417;-77
2022/12/05 01:11:18;;;;;;;1.73;1.63;;;4.70;99.90;;;;;;5065998;28;20079;-76
2022/12/05 01:13:45;;;;;;;16.83;2.30;;;4.80;99.90;;;;;;5065953;28;20044;-76
2022/12/05 01:16:18;;;;;;;3.28;1.70;;;4.90;99.90;;;;;;5065943;28;20071;-76
2022/12/05 01:18:44;;;;;;;2.63;2.15;;;4.80;99.90;;;;;;5047898;28;20052;-76
2022/12/05 01:21:10;;;;;;;2.17;1.58;;;4.80;99.90;;;;;;5065873;28;20536;-76
2022/12/05 01:23:35;;;;;;;1.38;1.27;;;4.70;99.90;;;;;;5065745;28;20036;-76
2022/12/05 01:26:06;;;;;;;1.55;1.35;;;4.70;99.90;;;;;;5065501;28;20402;-76
2022/12/05 01:28:32;;;;;;;2.25;2.05;;;4.70;99.90;;;;;;5065416;28;20105;-75
2022/12/05 01:31:03;;;;;;;2.08;1.73;;;4.70;99.90;;;;;;5065442;28;20072;-76
2022/12/05 01:33:28;;;;;;;1.55;1.42;;;4.80;99.90;;;;;;5065474;28;20514;-76
2022/12/05 01:35:54;;;;;;;3.47;2.15;;;4.80;99.90;;;;;;5065610;28;20059;-76
2022/12/05 01:38:20;;;;;;;0.30;0.30;;;4.70;99.90;;;;;;5065019;28;20508;-76
2022/12/05 01:40:45;;;;;;;1.33;1.23;;;4.70;99.90;;;;;;5064915;28;20090;-76
2022/12/05 01:43:16;;;;;;;2.95;1.90;;;4.70;99.90;;;;;;5065322;28;20094;-76
2022/12/05 01:45:44;;;;;;;14.20;3.55;;;4.70;99.90;;;;;;5065359;28;20583;-76
2022/12/05 01:48:16;;;;;;;1.42;0.98;;;4.70;99.90;;;;;;5064994;28;20615;-76
2022/12/05 01:50:42;;;;;;;1.33;1.25;;;4.70;99.90;;;;;;5046864;28;20059;-76
2022/12/05 01:53:08;;;;;;;2.33;2.13;;;4.70;99.90;;;;;;5064670;28;20398;-76
2022/12/05 01:55:35;;;;;;;2.17;1.67;;;4.70;99.90;;;;;;5064872;28;20055;-76
2022/12/05 01:58:04;;;;;;;4.35;3.17;;;4.80;99.90;;;;;;5064664;28;20094;-76
2022/12/05 02:00:29;;;;;;;3.60;2.85;;;4.80;99.90;;;;;;5065018;28;20146;-76
2022/12/05 02:02:59;;;;;;;4.25;2.85;;;4.80;99.90;;;;;;5064985;28;20537;-76
2022/12/05 02:05:33;;;;;;;1.67;1.05;;;4.80;99.90;;;;;;5064738;28;20448;-76
2022/12/05 02:08:05;;;;;;;1.73;1.17;;;4.80;99.90;;;;;;5064693;28;20041;-76
2022/12/05 02:10:36;;;;;;;0.90;0.73;;;4.90;99.90;;;;;;5065266;28;20785;-76
2022/12/05 02:13:25;;;;;;;2.72;1.50;;;4.90;99.90;;;;;;5064953;28;20045;-76
2022/12/05 02:16:04;;;;;;;1.80;1.65;;;4.90;99.90;;;;;;5064677;28;20048;-76
2022/12/05 02:18:45;;;;;;;3.20;1.95;;;4.90;99.90;;;;;;5064499;28;20445;-76
2022/12/05 02:21:39;;;;;;;1.17;0.90;;;4.90;99.90;;;;;;5064755;28;20145;-75
2022/12/05 02:24:40;;;;;;;1.23;1.13;;;5.00;99.90;;;;;;5064426;28;20044;-76
2022/12/05 02:27:15;;;;;;;0.93;0.75;;;5.00;99.90;;;;;;5041639;28;20056;-76
2022/12/05 02:29:48;;;;;;;6.22;1.58;;;5.00;99.90;;;;;;5045566;28;20513;-75
2022/12/05 02:32:51;;;;;;;1.60;1.50;;;5.00;99.90;;;;;;5064509;28;20044;-76
2022/12/05 02:35:37;;;;;;;1.42;1.13;;;5.00;99.90;;;;;;5063444;28;20494;-76
2022/12/05 02:38:06;;;;;;;2.45;1.38;;;5.10;99.90;;;;;;5041300;28;20045;-75
2022/12/05 02:40:42;;;;;;;6.50;1.58;;;5.00;99.90;;;;;;5063820;28;20513;-77
2022/12/05 02:43:19;;;;;;;;;;;5.00;99.90;;;;;;5064366;28;20417;-75
2022/12/05 02:45:49;;;;;;;0.85;0.75;;;5.00;99.90;;;;;;5063697;28;19924;-75
2022/12/05 02:48:17;;;;;;;0.55;0.47;;;5.00;99.90;;;;;;5064023;28;20394;-75
2022/12/05 02:50:45;;;;;;;0.82;0.82;;;4.90;99.90;;;;;;5061922;28;20044;-74
2022/12/05 02:53:14;;;;;;;0.80;0.80;;;4.90;99.90;;;;;;5063943;28;20045;-76
2022/12/05 02:55:42;;;;;;;1.67;1.02;;;4.90;99.90;;;;;;5064193;28;20080;-75
2022/12/05 02:58:14;;;;;;;0.40;0.38;;;4.90;99.90;;;;;;5063635;28;20048;-75
2022/12/05 03:00:43;;;;;;;2.28;1.55;;;4.90;99.90;;;;;;5064324;28;20059;-75
2022/12/05 03:03:21;;;;;;;1.38;1.15;;;4.90;99.90;;;;;;5072714;28;20048;-75
2022/12/05 03:06:09;;;;;;;1.38;0.70;;;4.90;99.90;;;;;;5084292;28;20066;-76
2022/12/05 03:08:45;;;;;;;1.35;0.65;;;4.90;99.90;;;;;;5067755;28;20052;-75
2022/12/05 03:11:10;;;;;;;0.52;0.52;;;4.90;99.90;;;;;;5063830;28;20129;-76
2022/12/05 03:14:02;;;;;;;1.63;0.95;;;4.90;99.90;;;;;;5063671;28;20040;-76
2022/12/05 03:16:36;;;;;;;0.70;0.70;;;4.90;99.90;;;;;;5063336;28;20060;-75
2022/12/05 03:19:10;;;;;;;0.47;0.47;;;4.90;99.90;;;;;;5063219;28;20497;-76
2022/12/05 03:21:52;;;;;;;2.80;1.90;;;4.80;99.90;;;;;;5063559;28;20052;-76
2022/12/05 03:24:18;;;;;;;0.55;0.55;;;4.80;99.90;;;;;;5063183;28;20142;-75
2022/12/05 03:27:05;;;;;;;0.63;0.52;;;4.80;99.90;;;;;;5063089;28;20553;-76
2022/12/05 03:29:40;;;;;;;0.17;0.17;;;4.80;99.90;;;;;;5063291;28;20036;-75
2022/12/05 03:32:28;;;;;;;0.75;0.75;;;4.90;99.90;;;;;;5063076;28;20048;-76
2022/12/05 03:35:22;;;;;;;0.98;0.93;;;4.90;99.90;;;;;;5063406;28;20048;-76
2022/12/05 03:38:02;;;;;;;1.23;1.15;;;4.80;99.90;;;;;;5053010;28;20586;-76
2022/12/05 03:40:32;;;;;;;2.15;0.85;;;4.90;99.90;;;;;;5063427;28;20127;-77
2022/12/05 03:43:14;;;;;;;0.80;0.40;;;4.90;99.90;;;;;;5063813;28;20513;-76
2022/12/05 03:46:00;;;;;;;1.67;1.55;;;4.80;99.90;;;;;;5063812;28;20056;-75
2022/12/05 03:48:48;;;;;;;0.57;0.57;;;4.80;99.90;;;;;;5063255;28;20048;-76
2022/12/05 03:51:17;;;;;;;15.52;1.35;;;4.90;99.90;;;;;;5063615;28;20048;-76
2022/12/05 03:54:18;;;;;;;0.08;0.08;;;4.80;99.90;;;;;;5063348;28;20438;-76
2022/12/05 03:57:03;;;;;;;5.18;1.65;;;4.80;99.90;;;;;;5062864;28;20044;-76
2022/12/05 03:59:39;;;;;;;1.90;1.75;;;4.80;99.90;;;;;;5063453;28;20485;-78
2022/12/05 04:02:19;;;;;;;1.10;0.60;;;4.90;99.90;;;;;;5064346;28;20135;-78
2022/12/05 04:04:57;;;;;;;2.00;0.77;;;4.90;99.90;;;;;;5067771;28;20056;-75
2022/12/05 04:07:24;;;;;;;0.43;0.43;;;4.90;99.90;;;;;;5067307;28;20060;-76
2022/12/05 04:09:56;;;;;;;1.48;1.02;;;4.90;99.90;;;;;;5067481;28;20539;-76
2022/12/05 04:12:26;;;;;;;0.52;0.50;;;4.90;99.90;;;;;;5067362;28;20098;-76
2022/12/05 04:15:18;;;;;;;0.43;0.43;;;4.90;99.90;;;;;;5067607;28;20127;-76
2022/12/05 04:17:57;;;;;;;0.93;0.60;;;4.90;99.90;;;;;;5066863;28;20044;-75
2022/12/05 04:23:11;;;;;;;0.43;0.35;;;4.90;99.90;;;;;;5067300;28;20048;-75
2022/12/05 04:25:58;;;;;;;2.60;2.10;;;4.90;99.90;;;;;;5066948;28;20113;-76
2022/12/05 04:28:37;;;;;;;0.00;0.00;;;4.90;99.90;;;;;;5066892;28;20063;-76
2022/12/05 04:31:05;;;;;;;0.00;0.00;;;4.90;99.90;;;;;;5067039;28;20048;-76
2022/12/05 04:33:39;;;;;;;0.00;0.00;;;4.90;99.90;;;;;;5066725;28;20522;-76
2022/12/05 04:36:11;;;;;;;0.10;0.08;;;4.90;99.90;;;;;;5065984;28;20048;-77
2022/12/05 04:39:13;;;;;;;1.05;0.63;;;4.90;99.90;;;;;;5066303;28;20141;-76
2022/12/05 04:41:43;;;;;;;0.30;0.30;;;4.90;99.90;;;;;;5052817;28;20056;-76
2022/12/05 04:44:12;;;;;;;1.20;0.75;;;4.90;99.90;;;;;;5048277;28;20083;-77
2022/12/05 04:46:40;;;;;;;0.43;0.43;;;4.90;99.90;;;;;;5065795;28;20405;-76
2022/12/05 04:49:08;;;;;;;0.22;0.22;;;4.90;99.90;;;;;;5046005;28;20404;-75
2022/12/05 04:51:37;;;;;;;0.00;0.00;;;4.90;99.90;;;;;;5046208;28;20041;-76
2022/12/05 04:54:18;;;;;;;1.38;1.17;;;4.90;99.90;;;;;;5045949;28;20045;-76
2022/12/05 04:56:49;;;;;;;0.30;0.30;;;4.90;99.90;;;;;;5046278;28;20052;-76
2022/12/05 04:59:14;;;;;;;0.30;0.30;;;4.90;99.90;;;;;;5065668;28;20135;-76
2022/12/05 05:01:43;;;;;;;0.10;0.10;;;4.90;99.90;;;;;;5065861;28;20124;-75
2022/12/05 05:04:28;;;;;;;0.38;0.38;;;4.90;99.90;;;;;;5066490;28;20059;-76
2022/12/05 05:06:54;;;;;;;0.40;0.40;;;4.90;99.90;;;;;;5064684;28;20540;-76
2022/12/05 05:09:20;;;;;;;0.10;0.10;;;4.90;99.90;;;;;;5065692;28;20139;-76
2022/12/05 05:11:46;;;;;;;1.95;1.35;;;4.90;99.90;;;;;;5065798;28;20123;-76
2022/12/05 05:14:11;;;;;;;0.38;0.20;;;4.90;99.90;;;;;;5046853;28;20055;-76
2022/12/05 05:16:39;;;;;;;0.10;0.10;;;4.90;99.90;;;;;;5065570;28;20044;-76
2022/12/05 05:19:06;;;;;;;0.22;0.22;;;4.90;99.90;;;;;;5065639;28;20086;-76
2022/12/05 05:21:35;;;;;;;1.20;0.32;;;5.00;99.90;;;;;;5065326;28;20592;-77
2022/12/05 05:24:02;;;;;;;0.47;0.38;;;5.00;99.90;;;;;;5065083;28;20040;-77
2022/12/05 05:26:29;;;;;;;0.35;0.35;;;4.90;99.90;;;;;;5047572;28;20409;-77
2022/12/05 05:28:56;;;;;;;1.42;1.33;;;5.00;99.90;;;;;;5065548;28;20048;-76
2022/12/05 05:31:22;;;;;;;3.33;1.08;;;4.90;99.90;;;;;;5065536;28;20071;-77
2022/12/05 05:33:51;;;;;;;0.20;0.20;;;5.00;99.90;;;;;;5065466;28;20086;-77
2022/12/05 05:36:18;;;;;;;1.63;0.88;;;5.00;99.90;;;;;;5063312;28;20048;-76
2022/12/05 05:38:46;;;;;;;0.95;0.93;;;5.00;99.90;;;;;;5061949;28;20050;-76
2022/12/05 05:41:17;;;;;;;0.22;0.22;;;5.00;99.90;;;;;;5061487;28;20623;-75
2022/12/05 05:43:43;;;;;;;0.25;0.10;;;5.00;99.90;;;;;;5062765;28;20044;-76
2022/12/05 05:46:10;;;;;;;0.00;0.00;;;5.00;99.90;;;;;;5062826;28;20088;-76
2022/12/05 05:48:37;;;;;;;0.80;0.68;;;5.00;99.90;;;;;;5062266;28;20389;-76
2022/12/05 05:51:04;;;;;;;0.13;0.13;;;5.00;99.90;;;;;;5062548;28;20049;-76
2022/12/05 05:53:31;;;;;;;0.08;0.08;;;5.00;99.90;;;;;;5061922;28;20561;-76
2022/12/05 05:56:00;;;;;;;0.20;0.20;;;5.00;99.90;;;;;;5061871;28;20102;-76
2022/12/05 05:58:26;;;;;;;0.63;0.50;;;5.00;99.90;;;;;;5062323;28;20469;-76
2022/12/05 06:00:51;;;;;;;1.27;0.70;;;5.00;99.90;;;;;;5061945;28;20056;-76
2022/12/05 06:03:17;;;;;;;0.15;0.15;;;5.00;99.90;;;;;;5040651;28;20040;-77
2022/12/05 06:05:43;;;;;;;1.13;0.55;;;5.00;99.90;;;;;;5062441;28;20051;-77
2022/12/05 06:08:08;;;;;;;1.00;0.90;;;5.00;99.90;;;;;;5062552;28;20052;-77
2022/12/05 06:10:36;;;;;;;0.00;0.00;;;5.00;99.90;;;;;;5062465;28;20410;-77
2022/12/05 06:13:02;;;;;;;1.05;0.98;;;5.00;99.90;;;;;;5062852;28;20544;-78
2022/12/05 06:15:28;;;;;;;3.20;0.75;;;5.00;99.90;;;;;;5044673;28;20076;-77
2022/12/05 06:17:55;;;;;;;3.60;1.02;;;5.00;99.90;;;;;;5062408;28;20054;-77
2022/12/05 06:20:20;;;;;;;2.75;0.98;;;5.00;99.90;;;;;;5063636;28;20408;-77
2022/12/05 06:22:46;;;;;;;0.57;0.52;;;5.00;99.90;;;;;;5062375;28;20037;-77
2022/12/05 06:25:11;;;;;;;0.85;0.73;;;5.00;99.90;;;;;;5061777;28;20515;-77
2022/12/05 06:27:37;;;;;;;0.38;0.38;;;5.00;99.90;;;;;;5062125;28;20064;-77
2022/12/05 06:30:03;;;;;;;0.10;0.10;;;5.00;99.90;;;;;;5062540;28;20052;-77
2022/12/05 06:32:29;;;;;;;5.28;2.53;;;5.00;99.90;;;;;;5062418;28;20055;-77
2022/12/05 06:34:55;;;;;;;4.60;0.73;;;5.00;99.90;;;;;;5062634;28;20044;-76
2022/12/05 06:37:20;;;;;;;0.30;0.30;;;5.00;99.90;;;;;;5062416;28;20064;-76
2022/12/05 06:39:46;;;;;;;0.40;0.40;;;5.00;99.90;;;;;;5062492;28;20166;-76
2022/12/05 06:42:12;;;;;;;0.30;0.22;;;5.00;99.90;;;;;;5062111;28;20071;-76
2022/12/05 06:44:37;;;;;;;0.15;0.15;;;5.00;99.90;;;;;;5062242;28;20045;-76
2022/12/05 06:47:03;;;;;;;0.00;0.00;;;5.00;99.90;;;;;;5062317;28;20056;-76
2022/12/05 06:49:31;;;;;;;0.75;0.25;;;5.00;99.90;;;;;;5061973;28;20044;-76
2022/12/05 06:51:58;;;;;;;0.40;0.40;;;5.00;99.90;;;;;;5062192;28;20059;-76
2022/12/05 06:54:24;;;;;;;0.30;0.30;;;5.00;99.90;;;;;;5062083;28;20084;-76
2022/12/05 06:56:49;;;;;;;0.03;0.03;;;5.00;99.90;;;;;;5062169;28;20084;-76
2022/12/05 06:59:15;;;;;;;0.32;0.32;;;5.00;99.90;;;;;;5061875;28;20055;-76
2022/12/05 07:01:41;;;;;;;0.00;0.00;;;5.00;99.90;;;;;;5044512;28;20076;-76
2022/12/05 07:04:14;;;;;;;3.95;2.20;;;5.00;99.90;;;;;;5062222;28;20037;-77
2022/12/05 07:06:42;;;;;;;0.00;0.00;;;5.00;99.90;;;;;;5062198;28;20074;-77
2022/12/05 07:09:08;;;;;;;2.60;0.20;;;5.00;99.90;;;;;;5062021;28;20059;-77
2022/12/05 07:11:34;;;;;;;0.57;0.57;;;5.00;99.90;;;;;;5043997;28;20511;-76
2022/12/05 07:14:01;;;;;;;0.85;0.52;;;5.00;99.90;;;;;;5061736;28;20563;-76
2022/12/05 07:16:27;;;;;;;0.80;0.80;;;5.00;99.90;;;;;;5061824;28;20047;-76
2022/12/05 07:18:52;;;;;;;0.47;0.47;;;5.00;99.90;;;;;;5062096;28;20056;-76
2022/12/05 07:21:20;;;;;;;1.17;0.70;;;5.00;99.90;;;;;;5062218;28;20084;-76
2022/12/05 07:23:46;;;;;;;0.00;0.00;;;5.00;99.90;;;;;;5061688;28;20059;-76
2022/12/05 07:26:15;;;;;;;0.50;0.50;;;5.00;99.90;;;;;;5061830;28;20525;-76
2022/12/05 07:28:41;;;;;;;0.00;0.00;;;5.00;99.90;;;;;;5061726;28;20523;-76
2022/12/05 07:31:09;;;;;;;0.50;0.50;;;5.00;99.90;;;;;;5061592;28;20129;-78
2022/12/05 07:33:35;;;;;;;0.75;0.65;;;5.00;99.90;;;;;;5061879;28;20097;-76
2022/12/05 07:36:03;;;;;;;0.13;0.13;;;5.00;99.90;;;;;;5062023;28;20041;-76
2022/12/05 07:38:29;;;;;;;0.47;0.47;;;5.00;99.90;;;;;;5061099;28;20059;-76
2022/12/05 07:40:55;;;;;;;0.32;0.22;;;5.00;99.90;;;;;;5061711;28;20135;-76
2022/12/05 07:43:21;;;;;;;1.10;0.98;;;5.00;99.90;;;;;;5060867;28;20123;-76
2022/12/05 07:45:46;;;;;;;0.25;0.25;;;5.00;99.90;;;;;;5061307;28;20063;-76
2022/12/05 07:48:12;;;;;;;1.02;0.93;;;5.00;99.90;;;;;;5060257;28;20048;-76
2022/12/05 07:50:38;;;;;;;1.05;0.75;;;5.00;99.90;;;;;;5059075;28;20041;-76
2022/12/05 07:53:04;;;;;;;0.52;0.45;;;5.00;99.90;;;;;;5032245;28;20048;-76
2022/12/05 07:55:29;;;;;;;0.00;0.00;;;5.00;99.90;;;;;;5040395;28;20514;-76
2022/12/05 07:57:55;;;;;;;0.75;0.65;;;5.00;99.90;;;;;;5039223;28;20102;-76
2022/12/05 08:00:21;;;;;;;1.27;0.73;;;5.50;99.90;;;;;;5021502;28;20095;-76
2022/12/05 08:02:47;;;;;;;0.57;0.57;;;5.00;99.90;;;;;;5039259;28;20206;-76
2022/12/05 08:05:13;;;;;;;2.13;0.70;;;5.00;99.90;;;;;;5039217;28;20578;-76
2022/12/05 08:07:38;;;;;;;0.03;0.03;;;5.00;99.90;;;;;;5039472;28;20487;-76
2022/12/05 08:10:05;;;;;;;1.48;1.38;;;5.00;99.90;;;;;;5039087;28;20163;-76
2022/12/05 08:12:30;;;;;;;1.15;1.00;;;5.00;99.90;;;;;;5038627;28;20045;-76
2022/12/05 08:14:56;;;;;;;1.27;1.00;;;5.00;99.90;;;;;;5046842;28;20048;-76
2022/12/05 08:17:22;;;;;;;0.28;0.25;;;5.00;99.90;;;;;;5048671;28;20528;-76
2022/12/05 08:19:47;;;;;;;0.00;0.00;;;5.00;99.90;;;;;;5050576;28;20394;-76
2022/12/05 08:22:13;;;;;;;0.55;0.55;;;5.00;99.90;;;;;;5057007;28;20048;-76
2022/12/05 08:24:38;;;;;;;1.90;0.65;;;5.00;99.90;;;;;;5057099;28;20489;-76
2022/12/05 08:27:05;;;;;;;0.40;0.40;;;5.00;99.90;;;;;;5056788;28;20059;-76
2022/12/05 08:29:31;;;;;;;0.30;0.30;;;5.00;99.90;;;;;;5038801;28;20052;-76
2022/12/05 08:31:57;;;;;;;0.00;0.00;;;5.00;99.90;;;;;;5038507;28;20049;-76
2022/12/05 08:34:23;;;;;;;0.63;0.52;;;5.00;99.90;;;;;;5056850;28;20087;-76
2022/12/05 08:36:48;;;;;;;1.75;0.15;;;5.00;99.90;;;;;;5057677;28;20118;-76
2022/12/05 08:39:17;;;;;;;1.13;1.02;;;5.00;99.90;;;;;;5042701;28;20609;-76
2022/12/05 08:41:43;;;;;;;0.95;0.95;;;5.00;99.90;;;;;;5036914;28;20106;-76
2022/12/05 08:44:14;;;;;;;1.25;1.15;;;5.00;99.90;;;;;;5037041;28;20068;-76
2022/12/05 08:46:41;;;;;;;0.65;0.65;;;5.00;99.90;;;;;;5037256;28;20041;-76
2022/12/05 08:49:07;;;;;;;0.40;0.40;;;5.00;99.90;;;;;;5051382;28;20488;-76
2022/12/05 08:51:33;;;;;;;0.20;0.20;;;5.00;99.90;;;;;;5060220;28;20123;-76
2022/12/05 08:54:02;;;;;;;0.08;0.08;;;5.00;99.90;;;;;;5055989;28;20131;-76
2022/12/05 08:56:28;;;;;;;1.13;1.02;;;5.00;99.90;;;;;;5060284;28;20525;-76
2022/12/05 08:58:55;;;;;;;0.30;0.30;;;5.00;99.90;;;;;;5049407;28;20064;-76
2022/12/05 09:01:21;;;;;;;0.82;0.82;;;5.00;99.90;;;;;;5040643;28;20052;-76
2022/12/05 09:03:47;;;;;;;0.00;0.00;;;5.00;99.90;;;;;;5040505;28;20138;-76
2022/12/05 09:06:17;;;;;;;0.30;0.30;;;5.00;99.90;;;;;;5040460;28;20071;-76
2022/12/05 09:08:44;;;;;;;0.52;0.52;;;5.00;99.90;;;;;;5040278;28;20040;-76
2022/12/05 09:11:22;;;;;;;0.30;0.30;;;5.00;99.90;;;;;;5022566;28;20057;-76
2022/12/05 09:13:49;;;;;;;1.88;0.77;;;5.00;99.90;;;;;;5040355;28;20057;-76
2022/12/05 09:16:17;;;;;;;0.95;0.85;;;5.00;99.90;;;;;;5040597;28;20045;-77
2022/12/05 09:18:44;;;;;;;1.40;1.25;;;5.00;99.90;;;;;;5049540;28;20055;-77
2022/12/05 09:21:25;;;;;;;1.20;0.50;;;5.10;99.90;;;;;;5060485;28;20054;-77
2022/12/05 09:23:52;;;;;;;1.65;0.75;;;5.00;99.90;;;;;;5042100;28;20105;-77
2022/12/05 09:26:23;;;;;;;0.88;0.82;;;5.00;99.90;;;;;;5060470;28;20190;-77
2022/12/05 09:28:49;;;;;;;1.27;1.08;;;5.00;99.90;;;;;;5060286;28;20127;-77
2022/12/05 09:31:17;;;;;;;1.65;1.00;;;5.10;99.90;;;;;;5060477;28;20178;-77
2022/12/05 09:33:44;;;;;;;0.45;0.45;;;5.10;99.90;;;;;;5042644;28;20398;-77
2022/12/05 09:36:22;;;;;;;0.25;0.25;;;5.10;99.90;;;;;;5060517;28;20060;-77
2022/12/05 09:38:48;;;;;;;1.27;1.17;;;5.10;99.90;;;;;;5059260;28;20040;-77
2022/12/05 09:42:03;;;;;;;0.13;0.13;;;5.10;99.90;;;;;;5059921;28;20072;-77
2022/12/05 09:44:44;;;;;;;0.50;0.40;;;5.10;99.90;;;;;;5059722;28;20106;-77
2022/12/05 09:47:34;;;;;;;0.32;0.30;;;5.10;99.90;;;;;;5059775;28;20045;-77
2022/12/05 09:50:14;;;;;;;0.82;0.82;;;5.10;99.90;;;;;;5040427;28;20056;-77
2022/12/05 09:53:01;;;;;;;0.57;0.52;;;5.10;99.90;;;;;;5039736;28;20052;-77
2022/12/05 09:55:53;;;;;;;0.88;0.82;;;5.10;99.90;;;;;;5039443;28;20045;-77
2022/12/05 09:58:28;;;;;;;0.03;0.03;;;5.10;99.90;;;;;;5038816;28;20405;-77
2022/12/05 10:01:08;;;;;;;2.42;1.65;;;5.10;99.90;;;;;;5041321;28;20049;-77
2022/12/05 10:03:58;;;;;;;0.22;0.22;;;5.10;99.90;;;;;;5022864;28;20128;-77
2022/12/05 10:06:27;;;;;;;1.00;0.75;;;5.10;99.90;;;;;;5040915;28;20059;-77
2022/12/05 10:08:53;;;;;;;0.50;0.50;;;5.10;99.90;;;;;;5040561;28;20045;-77
2022/12/05 10:11:51;;;;;;;0.10;0.10;;;5.10;99.90;;;;;;5022777;28;20117;-77
2022/12/05 10:14:59;;;;;;;0.30;0.30;;;5.10;99.90;;;;;;5034580;28;20057;-77
2022/12/05 10:17:34;;;;;;;1.65;1.55;;;5.10;99.90;;;;;;5050889;28;20059;-77
2022/12/05 10:20:12;;;;;;;0.43;0.27;;;5.10;99.90;;;;;;5060690;28;20055;-77
2022/12/05 10:22:47;;;;;;;0.25;0.25;;;5.10;99.90;;;;;;5059942;28;20296;-77
2022/12/05 10:25:18;;;;;;;0.85;0.75;;;5.10;99.90;;;;;;5060362;28;20513;-77
2022/12/05 10:27:51;;;;;;;0.98;0.95;;;5.10;99.90;;;;;;5060252;28;20052;-77
2022/12/05 10:30:23;;;;;;;0.63;0.45;;;5.10;99.90;;;;;;5059967;28;20055;-77
2022/12/05 10:32:48;;;;;;;0.15;0.15;;;5.10;99.90;;;;;;5051014;28;20120;-77
2022/12/05 10:35:36;;;;;;;0.28;0.28;;;5.10;99.90;;;;;;5048699;28;20187;-77
2022/12/05 10:38:06;;;;;;;0.50;0.40;;;5.10;99.90;;;;;;5042211;28;20613;-77
2022/12/05 10:40:41;;;;;;;0.65;0.55;;;5.10;99.90;;;;;;5039814;28;20543;-77
2022/12/05 10:43:11;;;;;;;0.55;0.55;;;5.20;99.90;;;;;;5040298;28;20053;-77
2022/12/05 10:45:45;;;;;;;0.90;0.90;;;5.20;99.90;;;;;;5022423;28;20057;-77
2022/12/05 10:48:13;;;;;;;3.63;1.15;;;5.20;99.90;;;;;;5039838;28;20045;-77
2022/12/05 10:50:41;;;;;;;0.20;0.20;;;5.20;99.90;;;;;;5040082;28;20041;-77
2022/12/05 10:53:12;;;;;;;0.80;0.63;;;5.20;99.90;;;;;;5039698;28;20448;-77
2022/12/05 10:55:45;;;;;;;1.85;0.98;;;5.20;99.90;;;;;;5040198;28;20045;-77
2022/12/05 10:58:20;;;;;;;2.40;1.27;;;5.20;99.90;;;;;;5040273;28;20049;-77
2022/12/05 11:00:48;;;;;;;1.08;0.52;;;5.30;99.90;;;;;;5040022;28;20063;-77
2022/12/05 11:03:24;;;;;;;1.00;1.00;;;5.30;99.90;;;;;;5039986;28;20055;-77
2022/12/05 11:05:52;;;;;;;0.85;0.30;;;5.30;99.90;;;;;;5039903;28;20132;-77
2022/12/05 11:08:32;;;;;;;0.20;0.20;;;5.30;99.90;;;;;;5039935;28;20052;-77
2022/12/05 11:11:17;;;;;;;4.05;1.30;;;5.20;99.90;;;;;;5022427;28;20053;-77
2022/12/05 11:14:03;;;;;;;0.00;0.00;;;5.30;99.90;;;;;;5042675;28;20049;-77
2022/12/05 11:16:32;;;;;;;0.95;0.63;;;5.20;99.90;;;;;;5059592;28;20051;-76
2022/12/05 11:19:21;;;;;;;0.05;0.05;;;5.20;99.90;;;;;;5058620;28;20047;-77
2022/12/05 11:21:49;;;;;;;0.75;0.75;;;5.20;99.90;;;;;;5058266;28;20189;-77
2022/12/05 11:24:38;;;;;;;0.35;0.35;;;5.20;99.90;;;;;;5058006;28;20114;-77
2022/12/05 11:27:16;;;;;;;2.50;0.22;;;5.30;99.90;;;;;;5042157;28;20060;-76
2022/12/05 11:29:54;;;;;;;0.43;0.43;;;5.30;99.90;;;;;;5041501;28;20095;-77
2022/12/05 11:32:26;;;;;;;4.95;1.55;;;5.30;99.90;;;;;;5057417;28;20076;-77
2022/12/05 11:35:27;;;;;;;0.20;0.10;;;5.30;99.90;;;;;;5059152;28;20057;-77
2022/12/05 11:37:57;;;;;;;0.60;0.55;;;5.30;99.90;;;;;;4996495;28;20111;-76
2022/12/05 11:40:38;;;;;;;0.00;0.00;;;5.30;99.90;;;;;;5047955;28;20061;-76
2022/12/05 11:43:25;;;;;;;0.35;0.35;;;5.30;99.90;;;;;;5059735;28;20129;-77
2022/12/05 11:45:50;;;;;;;;;;;5.30;99.90;;;;;;5062446;28;20095;-77
2022/12/05 11:48:27;;;;;;;0.00;0.00;;;5.30;99.90;;;;;;5061834;28;20009;-77
2022/12/05 11:51:20;;;;;;;0.75;0.75;;;5.20;99.90;;;;;;5061363;28;20048;-77
2022/12/05 11:54:13;;;;;;;0.20;0.15;;;5.20;99.90;;;;;;5061141;28;20048;-77
2022/12/05 11:56:53;;;;;;;0.25;0.25;;;5.20;99.90;;;;;;5061748;28;20048;-77
2022/12/05 11:59:33;;;;;;;0.10;0.10;;;5.20;99.90;;;;;;5061620;28;20052;-77
2022/12/05 12:02:19;;;;;;;0.40;0.40;;;5.20;99.90;;;;;;5061155;28;20052;-76
2022/12/05 12:04:48;;;;;;;0.75;0.50;;;5.20;99.90;;;;;;5061527;28;20102;-76
2022/12/05 12:07:28;;;;;;;0.20;0.20;;;5.20;99.90;;;;;;5060866;28;20544;-77
2022/12/05 12:10:17;;;;;;;0.60;0.28;;;5.20;99.90;;;;;;5061116;28;20070;-77
2022/12/05 12:12:53;;;;;;;0.25;0.25;;;5.20;99.90;;;;;;5061786;28;20060;-77
2022/12/05 12:15:47;;;;;;;0.00;0.00;;;5.20;99.90;;;;;;5062855;28;20502;-77
2022/12/05 12:18:40;;;;;;;2.55;0.43;;;5.20;99.90;;;;;;5062502;28;20448;-76
2022/12/05 12:21:17;;;;;;;0.10;0.10;;;5.20;99.90;;;;;;5063027;28;20060;-76
2022/12/05 12:24:02;;;;;;;1.80;0.75;;;5.20;99.90;;;;;;5045283;28;20060;-77
2022/12/05 12:27:09;;;;;;;0.25;0.25;;;5.20;99.90;;;;;;5066505;28;20049;-77
2022/12/05 12:29:56;;;;;;;0.80;0.80;;;5.20;99.90;;;;;;5040388;28;20551;-77
2022/12/05 12:32:44;;;;;;;0.40;0.40;;;5.20;99.90;;;;;;5064567;28;20889;-76
2022/12/05 12:35:22;;;;;;;0.28;0.28;;;5.20;99.90;;;;;;5048319;28;20052;-76
2022/12/05 12:37:48;;;;;;;0.90;0.63;;;5.20;99.90;;;;;;5057574;28;20060;-77
2022/12/05 12:40:26;;;;;;;0.00;0.00;;;5.20;99.90;;;;;;5053863;28;20049;-77
2022/12/05 12:43:24;;;;;;;0.40;0.40;;;5.20;99.90;;;;;;5052809;28;20084;-77
2022/12/05 12:46:11;;;;;;;0.95;0.90;;;5.20;99.90;;;;;;5049244;28;20052;-77
2022/12/05 12:48:40;;;;;;;0.20;0.20;;;5.20;99.90;;;;;;5044653;28;20045;-77
2022/12/05 12:51:11;;;;;;;0.30;0.30;;;5.20;99.90;;;;;;5044627;28;20132;-78
2022/12/05 12:54:00;;;;;;;0.00;0.00;;;5.20;99.90;;;;;;5044071;28;20526;-77
2022/12/05 12:56:25;;;;;;;0.00;0.00;;;5.20;99.90;;;;;;5038365;28;20103;-77
2022/12/05 12:59:10;;;;;;;0.00;0.00;;;5.20;99.90;;;;;;5044065;28;20099;-77
2022/12/05 13:01:44;;;;;;;0.15;0.15;;;5.20;99.90;;;;;;5044447;28;20433;-77
2022/12/05 13:04:45;;;;;;;0.10;0.10;;;5.20;99.90;;;;;;5025715;28;20516;-77
2022/12/05 13:07:19;;;;;;;0.80;0.47;;;5.20;99.90;;;;;;5040388;28;20061;-77
2022/12/05 13:09:57;;;;;;;0.17;0.17;;;5.20;99.90;;;;;;5042061;28;20217;-77
2022/12/05 13:12:30;;;;;;;0.10;0.10;;;5.20;99.90;;;;;;5041987;28;20060;-77
2022/12/05 13:15:05;;;;;;;0.20;0.20;;;5.20;99.90;;;;;;5024584;28;20052;-78
2022/12/05 13:17:31;;;;;;;1.63;1.17;;;5.20;99.90;;;;;;5042583;28;20048;-78
2022/12/05 13:19:58;;;;;;;0.70;0.70;;;5.20;99.90;;;;;;5041713;28;20053;-77
2022/12/05 13:22:26;;;;;;;1.02;0.60;;;5.20;99.90;;;;;;5041557;28;20491;-77
2022/12/05 13:24:53;;;;;;;2.05;0.55;;;5.20;99.90;;;;;;5041848;28;20045;-77
2022/12/05 13:27:26;;;;;;;0.10;0.10;;;5.20;99.90;;;;;;5041272;28;20107;-77